Time;durP1;ratioP1;P1;durP2;ratioP2;P2;SDS_P1;SDS_P2;PMS_P1;PMS_P2;Temp;Humidity;BMP_temperature;BMP_pressure;BME280_temperature;BME280_humidity;BME280_pressure;Samples;Min_cycle;Max_cycle;Signal;HPM_P1;HPM_P2
2021/10/21 00:02:07;;;;;;;17.15;11.13;;;;;;;;;;5093394;28;20035;-67
2021/10/21 00:04:34;;;;;;;20.13;11.80;;;;;;;;;;5093370;28;20531;-67
2021/10/21 00:07:00;;;;;;;19.27;11.10;;;;;;;;;;5092946;28;20091;-66
2021/10/21 00:09:26;;;;;;;18.58;11.75;;;;;;;;;;5093363;28;20020;-66
2021/10/21 00:11:52;;;;;;;16.98;11.23;;;;;;;;;;5093484;28;20024;-66
2021/10/21 00:14:19;;;;;;;15.60;10.20;;;;;;;;;;5091503;28;20023;-66
2021/10/21 00:16:45;;;;;;;21.02;11.30;;;;;;;;;;5093316;28;20025;-66
2021/10/21 00:19:11;;;;;;;14.93;9.95;;;;;;;;;;5093588;28;20020;-66
2021/10/21 00:21:37;;;;;;;16.35;10.27;;;;;;;;;;5092697;28;20039;-66
2021/10/21 00:24:03;;;;;;;18.95;10.38;;;;;;;;;;5093353;28;20487;-66
2021/10/21 00:26:30;;;;;;;17.48;11.80;;;;;;;;;;5093117;28;20035;-68
2021/10/21 00:28:56;;;;;;;20.08;11.88;;;;;;;;;;5095222;28;20089;-66
2021/10/21 00:31:22;;;;;;;17.80;11.55;;;;;;;;;;5097128;28;20385;-67
2021/10/21 00:33:48;;;;;;;21.10;11.65;;;;;;;;;;5097009;28;20038;-66
2021/10/21 00:36:15;;;;;;;21.95;11.82;;;;;;;;;;5096580;28;20016;-67
2021/10/21 00:38:41;;;;;;;18.35;12.05;;;;;;;;;;5096842;28;20020;-67
2021/10/21 00:41:07;;;;;;;16.95;10.63;;;;;;;;;;5096736;28;20048;-67
2021/10/21 00:43:37;;;;;;;17.08;10.90;;;;;;;;;;5096351;28;20035;-68
2021/10/21 00:46:07;;;;;;;16.15;9.95;;;;;;;;;;5096784;28;20028;-68
2021/10/21 00:48:33;;;;;;;14.98;9.82;;;;;;;;;;5096648;28;20476;-67
2021/10/21 00:50:59;;;;;;;20.50;11.52;;;;;;;;;;5096245;28;20028;-68
2021/10/21 00:53:26;;;;;;;17.70;10.60;;;;;;;;;;5096561;28;20031;-68
2021/10/21 00:55:52;;;;;;;18.98;11.27;;;;;;;;;;5096027;28;20138;-68
2021/10/21 00:58:19;;;;;;;17.50;11.30;;;;;;;;;;5095222;28;20031;-68
2021/10/21 01:00:45;;;;;;;19.08;11.27;;;;;;;;;;5096374;28;20020;-68
2021/10/21 01:03:11;;;;;;;20.77;12.68;;;;;;;;;;5095964;28;20127;-67
2021/10/21 01:05:37;;;;;;;16.42;10.75;;;;;;;;;;5096332;28;20024;-68
2021/10/21 01:08:03;;;;;;;18.83;11.55;;;;;;;;;;5094871;28;20023;-68
2021/10/21 01:10:29;;;;;;;16.88;10.45;;;;;;;;;;5095911;28;20589;-68
2021/10/21 01:12:56;;;;;;;19.17;12.35;;;;;;;;;;5096109;28;20024;-69
2021/10/21 01:15:25;;;;;;;19.70;13.20;;;;;;;;;;5096081;28;20024;-67
2021/10/21 01:17:52;;;;;;;21.70;13.05;;;;;;;;;;5095698;28;20026;-68
2021/10/21 01:20:19;;;;;;;20.60;12.63;;;;;;;;;;5095899;28;20095;-67
2021/10/21 01:22:46;;;;;;;18.35;11.70;;;;;;;;;;5096387;28;20077;-67
2021/10/21 01:25:13;;;;;;;18.83;10.85;;;;;;;;;;5095546;28;20501;-68
2021/10/21 01:27:40;;;;;;;21.13;12.20;;;;;;;;;;5095834;28;20024;-68
2021/10/21 01:30:07;;;;;;;16.13;11.18;;;;;;;;;;5095755;28;20028;-68
2021/10/21 01:32:36;;;;;;;16.60;11.27;;;;;;;;;;5095353;28;20099;-67
2021/10/21 01:35:04;;;;;;;19.08;11.02;;;;;;;;;;5094344;28;20069;-67
2021/10/21 01:37:33;;;;;;;17.73;12.02;;;;;;;;;;5095952;28;20020;-67
2021/10/21 01:39:59;;;;;;;17.83;11.40;;;;;;;;;;5095135;28;20021;-67
2021/10/21 01:42:26;;;;;;;20.90;11.80;;;;;;;;;;5095246;28;20080;-67
2021/10/21 01:44:52;;;;;;;24.60;12.30;;;;;;;;;;5095597;28;20024;-68
2021/10/21 01:47:18;;;;;;;17.52;10.90;;;;;;;;;;5095058;28;20028;-68
2021/10/21 01:49:45;;;;;;;18.58;11.40;;;;;;;;;;5095638;28;20024;-68
2021/10/21 01:52:12;;;;;;;17.80;11.95;;;;;;;;;;5095212;28;20028;-67
2021/10/21 01:54:38;;;;;;;19.20;11.65;;;;;;;;;;5095401;28;20372;-67
2021/10/21 01:57:04;;;;;;;17.65;11.43;;;;;;;;;;5095488;28;20081;-67
2021/10/21 01:59:30;;;;;;;18.88;12.05;;;;;;;;;;5094846;28;20426;-67
2021/10/21 02:01:56;;;;;;;23.00;11.98;;;;;;;;;;5095314;28;20058;-67
2021/10/21 02:04:22;;;;;;;20.70;12.55;;;;;;;;;;5095700;28;20059;-67
2021/10/21 02:06:49;;;;;;;20.48;14.30;;;;;;;;;;5094662;28;20028;-67
2021/10/21 02:09:15;;;;;;;17.75;11.65;;;;;;;;;;5094980;28;20042;-68
2021/10/21 02:11:41;;;;;;;17.50;10.65;;;;;;;;;;5094945;28;20024;-68
2021/10/21 02:14:07;;;;;;;26.23;15.13;;;;;;;;;;5094493;28;20035;-68
2021/10/21 02:16:33;;;;;;;23.27;14.35;;;;;;;;;;5093615;28;20016;-68
2021/10/21 02:18:59;;;;;;;24.08;15.50;;;;;;;;;;5095090;28;20082;-68
2021/10/21 02:21:26;;;;;;;25.08;14.88;;;;;;;;;;5094395;28;20500;-68
2021/10/21 02:23:52;;;;;;;24.27;14.40;;;;;;;;;;5094745;28;20032;-68
2021/10/21 02:26:18;;;;;;;18.40;11.80;;;;;;;;;;5094723;28;20016;-68
2021/10/21 02:28:44;;;;;;;18.67;12.52;;;;;;;;;;5094371;28;20028;-68
2021/10/21 02:31:11;;;;;;;18.23;11.98;;;;;;;;;;5093357;28;20044;-68
2021/10/21 02:33:37;;;;;;;20.23;12.93;;;;;;;;;;5094594;28;20031;-67
2021/10/21 02:36:03;;;;;;;20.13;11.95;;;;;;;;;;5092818;28;20103;-67
2021/10/21 02:38:30;;;;;;;17.15;11.80;;;;;;;;;;5094623;28;20494;-67
2021/10/21 02:40:56;;;;;;;19.90;11.55;;;;;;;;;;5094333;28;20113;-67
2021/10/21 02:43:22;;;;;;;20.00;11.38;;;;;;;;;;5094041;28;20376;-67
2021/10/21 02:45:49;;;;;;;19.10;10.95;;;;;;;;;;5094254;28;20012;-68
2021/10/21 02:48:15;;;;;;;21.42;12.85;;;;;;;;;;5094508;28;20028;-68
2021/10/21 02:50:41;;;;;;;17.63;11.65;;;;;;;;;;5093327;28;20024;-67
2021/10/21 02:53:07;;;;;;;17.60;10.68;;;;;;;;;;5094670;28;20543;-68
2021/10/21 02:55:33;;;;;;;17.63;10.88;;;;;;;;;;5093783;28;20073;-68
2021/10/21 02:57:59;;;;;;;20.77;11.68;;;;;;;;;;5094130;28;20034;-67
2021/10/21 03:00:25;;;;;;;16.73;10.57;;;;;;;;;;5094064;28;20069;-67
2021/10/21 03:02:52;;;;;;;18.63;10.50;;;;;;;;;;5093789;28;20097;-68
2021/10/21 03:05:18;;;;;;;18.17;11.38;;;;;;;;;;5094058;28;20537;-67
2021/10/21 03:07:44;;;;;;;21.02;11.77;;;;;;;;;;5094238;28;20028;-67
2021/10/21 03:10:10;;;;;;;19.65;11.45;;;;;;;;;;5093621;28;20031;-68
2021/10/21 03:12:37;;;;;;;16.33;10.52;;;;;;;;;;5093930;28;20032;-68
2021/10/21 03:15:03;;;;;;;16.30;10.68;;;;;;;;;;5093885;28;20361;-67
2021/10/21 03:17:29;;;;;;;16.50;10.38;;;;;;;;;;5093452;28;20034;-68
2021/10/21 03:19:55;;;;;;;16.88;11.23;;;;;;;;;;5092777;28;20479;-68
2021/10/21 03:22:21;;;;;;;19.45;11.20;;;;;;;;;;5093775;28;20036;-67
2021/10/21 03:24:47;;;;;;;23.63;12.85;;;;;;;;;;5093341;28;20035;-67
2021/10/21 03:27:14;;;;;;;24.60;14.13;;;;;;;;;;5093733;28;20121;-67
2021/10/21 03:29:40;;;;;;;18.33;11.05;;;;;;;;;;5093842;28;20058;-68
2021/10/21 03:32:06;;;;;;;19.40;11.45;;;;;;;;;;5093178;28;20047;-68
2021/10/21 03:34:33;;;;;;;20.00;11.85;;;;;;;;;;5093602;28;20449;-68
2021/10/21 03:36:59;;;;;;;24.60;13.32;;;;;;;;;;5093653;28;20091;-67
2021/10/21 03:39:25;;;;;;;21.63;13.10;;;;;;;;;;5093132;28;20480;-67
2021/10/21 03:41:51;;;;;;;20.83;11.85;;;;;;;;;;5093281;28;20546;-67
2021/10/21 03:44:18;;;;;;;22.63;12.38;;;;;;;;;;5093751;28;20099;-68
2021/10/21 03:46:44;;;;;;;25.23;12.77;;;;;;;;;;5093143;28;20050;-68
2021/10/21 03:49:10;;;;;;;24.70;14.32;;;;;;;;;;5093461;28;20469;-68
2021/10/21 03:51:36;;;;;;;30.50;17.60;;;;;;;;;;5093360;28;20491;-68
2021/10/21 03:54:02;;;;;;;24.23;14.77;;;;;;;;;;5092337;28;20028;-68
2021/10/21 03:56:28;;;;;;;20.55;13.13;;;;;;;;;;5092088;28;20027;-67
2021/10/21 03:58:55;;;;;;;21.77;14.48;;;;;;;;;;5093107;28;20039;-67
2021/10/21 04:01:21;;;;;;;22.02;14.25;;;;;;;;;;5093331;28;20484;-67
2021/10/21 04:03:47;;;;;;;18.88;12.05;;;;;;;;;;5095726;28;20032;-67
2021/10/21 04:06:13;;;;;;;20.30;13.23;;;;;;;;;;5097280;28;20026;-68
2021/10/21 04:08:39;;;;;;;21.52;12.55;;;;;;;;;;5096051;28;20480;-67
2021/10/21 04:11:06;;;;;;;18.35;11.95;;;;;;;;;;5097371;28;20036;-67
2021/10/21 04:13:32;;;;;;;25.40;15.00;;;;;;;;;;5096882;28;20043;-68
2021/10/21 04:15:58;;;;;;;24.52;16.38;;;;;;;;;;5097296;28;20024;-65
2021/10/21 04:18:24;;;;;;;23.85;16.55;;;;;;;;;;5097197;28;20078;-67
2021/10/21 04:20:50;;;;;;;29.30;19.33;;;;;;;;;;5096620;28;20380;-66
2021/10/21 04:23:17;;;;;;;28.25;20.92;;;;;;;;;;5097494;28;20111;-66
2021/10/21 04:25:43;;;;;;;31.10;19.95;;;;;;;;;;5096998;28;20073;-68
2021/10/21 04:28:09;;;;;;;33.58;20.73;;;;;;;;;;5095340;28;20131;-69
2021/10/21 04:30:35;;;;;;;35.47;23.25;;;;;;;;;;5096958;28;20028;-69
2021/10/21 04:33:01;;;;;;;28.85;17.65;;;;;;;;;;5097221;28;20491;-68
2021/10/21 04:35:28;;;;;;;36.60;21.67;;;;;;;;;;5096562;28;20028;-67
2021/10/21 04:37:54;;;;;;;34.28;22.55;;;;;;;;;;5096866;28;20099;-67
2021/10/21 04:40:20;;;;;;;42.72;27.02;;;;;;;;;;5096741;28;20369;-68
2021/10/21 04:42:46;;;;;;;49.42;34.95;;;;;;;;;;5096094;28;20135;-68
2021/10/21 04:45:12;;;;;;;87.97;55.75;;;;;;;;;;5096878;28;20372;-67
2021/10/21 04:47:39;;;;;;;92.90;51.08;;;;;;;;;;5096516;28;20020;-66
2021/10/21 04:50:05;;;;;;;92.28;47.95;;;;;;;;;;5096194;28;20031;-67
2021/10/21 04:52:31;;;;;;;63.88;35.33;;;;;;;;;;5096568;28;20085;-66
2021/10/21 04:54:58;;;;;;;49.85;28.70;;;;;;;;;;5096044;28;20024;-66
2021/10/21 04:57:24;;;;;;;34.20;21.45;;;;;;;;;;5096547;28;20044;-66
2021/10/21 04:59:50;;;;;;;40.38;19.23;;;;;;;;;;5096374;28;20047;-66
2021/10/21 05:02:16;;;;;;;25.30;15.90;;;;;;;;;;5095874;28;20147;-66
2021/10/21 05:04:43;;;;;;;28.23;15.95;;;;;;;;;;5094950;28;20039;-66
2021/10/21 05:07:09;;;;;;;22.38;15.10;;;;;;;;;;5102380;28;20107;-66
2021/10/21 05:09:35;;;;;;;25.25;14.32;;;;;;;;;;5104912;28;20020;-68
2021/10/21 05:12:01;;;;;;;23.08;14.13;;;;;;;;;;5096090;28;20034;-65
2021/10/21 05:14:27;;;;;;;25.20;14.75;;;;;;;;;;5095707;28;20485;-72
2021/10/21 05:16:54;;;;;;;22.50;13.85;;;;;;;;;;5095775;28;20535;-71
2021/10/21 05:19:20;;;;;;;24.77;16.80;;;;;;;;;;5095830;28;20076;-71
2021/10/21 05:21:46;;;;;;;22.15;15.35;;;;;;;;;;5093394;28;20043;-75
2021/10/21 05:24:12;;;;;;;24.88;17.25;;;;;;;;;;5094880;28;20568;-74
2021/10/21 05:26:39;;;;;;;27.35;15.50;;;;;;;;;;5092342;28;20112;-70
2021/10/21 05:29:05;;;;;;;21.98;15.48;;;;;;;;;;5094889;28;20026;-72
2021/10/21 05:31:32;;;;;;;23.08;14.85;;;;;;;;;;5094570;28;20024;-69
2021/10/21 05:33:58;;;;;;;31.38;21.02;;;;;;;;;;5095538;28;20388;-71
2021/10/21 05:36:27;;;;;;;40.47;24.13;;;;;;;;;;5085326;28;20019;-70
2021/10/21 05:38:54;;;;;;;44.63;26.40;;;;;;;;;;5093312;28;20577;-70
2021/10/21 05:41:20;;;;;;;32.50;21.23;;;;;;;;;;5095335;28;20105;-69
2021/10/21 05:43:46;;;;;;;29.80;18.75;;;;;;;;;;5092375;28;20429;-71
2021/10/21 05:46:13;;;;;;;30.95;19.25;;;;;;;;;;5094211;28;20024;-69
2021/10/21 05:48:40;;;;;;;30.63;20.02;;;;;;;;;;5093536;28;20032;-71
2021/10/21 05:51:08;;;;;;;32.53;20.88;;;;;;;;;;5092625;28;20543;-70
2021/10/21 05:53:35;;;;;;;40.97;23.80;;;;;;;;;;5094624;28;20073;-71
2021/10/21 05:56:01;;;;;;;32.33;21.83;;;;;;;;;;5095000;28;20480;-72
2021/10/21 05:58:27;;;;;;;33.60;20.08;;;;;;;;;;5093927;28;20085;-71
2021/10/21 06:00:53;;;;;;;34.10;21.83;;;;;;;;;;5094791;28;20325;-70
2021/10/21 06:03:19;;;;;;;32.95;21.58;;;;;;;;;;5093853;28;20150;-68
2021/10/21 06:05:46;;;;;;;34.65;21.38;;;;;;;;;;5093594;28;20024;-69
2021/10/21 06:08:12;;;;;;;37.40;23.00;;;;;;;;;;5088837;28;20028;-69
2021/10/21 06:10:38;;;;;;;33.50;22.67;;;;;;;;;;5091527;28;20480;-72
2021/10/21 06:13:05;;;;;;;53.67;31.40;;;;;;;;;;5092449;28;20027;-73
2021/10/21 06:15:32;;;;;;;75.68;41.22;;;;;;;;;;5093134;28;20101;-72
2021/10/21 06:18:01;;;;;;;57.13;33.92;;;;;;;;;;5093494;28;20024;-72
2021/10/21 06:20:28;;;;;;;52.97;31.83;;;;;;;;;;5092567;28;20023;-70
2021/10/21 06:22:55;;;;;;;45.20;26.65;;;;;;;;;;5093307;28;20357;-69
2021/10/21 06:25:22;;;;;;;45.53;25.95;;;;;;;;;;5091950;28;20081;-70
2021/10/21 06:27:48;;;;;;;50.25;28.50;;;;;;;;;;5088989;28;20403;-70
2021/10/21 06:30:14;;;;;;;53.38;25.63;;;;;;;;;;5092684;28;20082;-68
2021/10/21 06:32:40;;;;;;;57.05;31.80;;;;;;;;;;5094001;28;20520;-69
2021/10/21 06:35:08;;;;;;;65.80;36.75;;;;;;;;;;5093140;28;20106;-67
2021/10/21 06:37:34;;;;;;;56.33;27.75;;;;;;;;;;5093528;28;20020;-69
2021/10/21 06:40:00;;;;;;;62.78;34.55;;;;;;;;;;5091653;28;20020;-69
2021/10/21 06:42:28;;;;;;;51.30;30.13;;;;;;;;;;5107074;28;20044;-68
2021/10/21 06:44:54;;;;;;;50.65;28.67;;;;;;;;;;5113486;28;20016;-69
2021/10/21 06:47:20;;;;;;;57.45;32.28;;;;;;;;;;5114102;28;20089;-66
2021/10/21 06:49:46;;;;;;;42.80;26.92;;;;;;;;;;5103942;28;20379;-68
2021/10/21 06:52:13;;;;;;;32.58;18.65;;;;;;;;;;5092660;28;20059;-68
2021/10/21 06:54:39;;;;;;;33.63;20.50;;;;;;;;;;5092081;28;20016;-68
2021/10/21 06:57:06;;;;;;;33.50;21.52;;;;;;;;;;5091343;28;20435;-68
2021/10/21 06:59:32;;;;;;;36.95;22.98;;;;;;;;;;5092025;28;20056;-67
2021/10/21 07:01:59;;;;;;;36.60;22.73;;;;;;;;;;5092448;28;20040;-69
2021/10/21 07:04:25;;;;;;;30.23;20.15;;;;;;;;;;5093485;28;20020;-67
2021/10/21 07:06:54;;;;;;;36.58;20.80;;;;;;;;;;5090339;28;20082;-69
2021/10/21 07:09:20;;;;;;;44.00;23.42;;;;;;;;;;5088863;28;20023;-66
2021/10/21 07:11:46;;;;;;;37.65;24.08;;;;;;;;;;5092238;28;20115;-68
2021/10/21 07:14:13;;;;;;;31.60;23.13;;;;;;;;;;5092162;28;20059;-68
2021/10/21 07:16:39;;;;;;;34.72;21.85;;;;;;;;;;5090335;28;20024;-67
2021/10/21 07:19:06;;;;;;;36.10;23.42;;;;;;;;;;5089664;28;20024;-68
2021/10/21 07:21:33;;;;;;;32.03;20.33;;;;;;;;;;5083119;28;20024;-67
2021/10/21 07:23:59;;;;;;;31.35;21.10;;;;;;;;;;5089207;28;20024;-67
2021/10/21 07:26:25;;;;;;;32.38;19.02;;;;;;;;;;5091047;28;20122;-66
2021/10/21 07:28:51;;;;;;;33.40;23.30;;;;;;;;;;5091032;28;20020;-66
2021/10/21 07:31:18;;;;;;;29.85;21.10;;;;;;;;;;5088929;28;20100;-66
2021/10/21 07:33:45;;;;;;;25.80;17.48;;;;;;;;;;5090666;28;20078;-67
2021/10/21 07:38:58;;;;;;;24.00;15.73;;;;;;;;;;5170535;27;20585;-67
2021/10/21 07:41:27;;;;;;;27.00;15.75;;;;;;;;;;5151090;27;20050;-67
2021/10/21 07:43:53;;;;;;;27.98;18.45;;;;;;;;;;5131921;27;20019;-66
2021/10/21 07:47:52;;;;;;;23.17;15.30;;;;;;;;;;5110820;27;20505;-67
2021/10/21 07:50:18;;;;;;;22.13;14.93;;;;;;;;;;5110613;28;20031;-67
2021/10/21 07:53:53;;;;;;;47.42;26.90;;;;;;;;;;5110571;27;20446;-67
2021/10/21 07:57:45;;;;;;;29.40;19.85;;;;;;;;;;5110279;27;20775;-67
2021/10/21 08:00:12;;;;;;;32.88;19.55;;;;;;;;;;5109141;28;20092;-68
2021/10/21 08:02:40;;;;;;;27.73;17.83;;;;;;;;;;5110962;28;20023;-70
2021/10/21 08:06:37;;;;;;;27.60;15.32;;;;;;;;;;5109847;27;20388;-69
2021/10/21 08:09:53;;;;;;;19.38;11.70;;;;;;;;;;5106690;27;20416;-67
2021/10/21 08:12:19;;;;;;;16.73;11.38;;;;;;;;;;5107994;28;20119;-69
2021/10/21 08:14:45;;;;;;;19.90;13.40;;;;;;;;;;5107190;28;20016;-68
2021/10/21 08:17:11;;;;;;;23.20;12.77;;;;;;;;;;5107804;28;20024;-69
2021/10/21 08:19:38;;;;;;;25.70;14.85;;;;;;;;;;5107828;28;20016;-72
2021/10/21 08:24:54;;;;;;;18.77;12.75;;;;;;;;;;5107160;27;20447;-69
2021/10/21 08:27:21;;;;;;;16.73;10.68;;;;;;;;;;5106971;28;20054;-69
2021/10/21 08:29:47;;;;;;;17.67;11.05;;;;;;;;;;5107008;28;20020;-69
2021/10/21 08:32:13;;;;;;;16.35;11.25;;;;;;;;;;5108037;28;20102;-68
2021/10/21 08:34:40;;;;;;;20.70;12.73;;;;;;;;;;5108230;28;20027;-68
2021/10/21 08:37:07;;;;;;;26.00;13.77;;;;;;;;;;5108745;28;20020;-69
2021/10/21 08:40:46;;;;;;;23.13;13.77;;;;;;;;;;5109835;27;20446;-69
2021/10/21 08:46:04;;;;;;;20.83;13.55;;;;;;;;;;5110761;27;20317;-70
2021/10/21 08:49:41;;;;;;;21.08;14.93;;;;;;;;;;5131485;27;20116;-69
2021/10/21 08:52:08;;;;;;;19.50;13.00;;;;;;;;;;5110743;28;20089;-71
2021/10/21 08:54:44;;;;;;;20.48;13.25;;;;;;;;;;5110412;27;20400;-69
2021/10/21 08:57:12;;;;;;;16.25;11.73;;;;;;;;;;5107029;28;20023;-69
2021/10/21 08:59:39;;;;;;;16.90;10.70;;;;;;;;;;5109592;28;20380;-67
2021/10/21 09:03:05;;;;;;;17.52;11.13;;;;;;;;;;5110570;27;20953;-67
2021/10/21 09:05:34;;;;;;;17.25;11.35;;;;;;;;;;5110748;28;20028;-68
2021/10/21 09:08:11;;;;;;;15.10;10.57;;;;;;;;;;5110483;28;20379;-67
2021/10/21 09:10:48;;;;;;;16.55;11.25;;;;;;;;;;5109588;28;20024;-67
2021/10/21 09:13:21;;;;;;;19.58;11.98;;;;;;;;;;5110101;28;20069;-68
2021/10/21 09:15:49;;;;;;;20.40;12.20;;;;;;;;;;5109408;28;20016;-67
2021/10/21 09:18:15;;;;;;;19.80;12.00;;;;;;;;;;5110707;28;20024;-68
2021/10/21 09:20:45;;;;;;;16.60;11.93;;;;;;;;;;5112635;28;20050;-69
2021/10/21 09:23:15;;;;;;;26.92;17.48;;;;;;;;;;5113658;28;20566;-69
2021/10/21 09:26:35;;;;;;;20.27;13.40;;;;;;;;;;5171236;27;20465;-67
2021/10/21 09:29:01;;;;;;;17.15;12.00;;;;;;;;;;5149673;27;20365;-68
2021/10/21 09:33:13;;;;;;;22.00;13.68;;;;;;;;;;5061337;28;20456;-66
2021/10/21 09:35:50;;;;;;;21.40;12.27;;;;;;;;;;5066228;28;20032;-67
2021/10/21 09:40:27;;;;;;;16.70;11.80;;;;;;;;;;5099722;27;1510412;-68
2021/10/21 09:44:25;;;;;;;18.30;12.75;;;;;;;;;;5108783;27;20442;-67
2021/10/21 09:46:51;;;;;;;18.63;11.52;;;;;;;;;;5110165;28;20031;-66
2021/10/21 09:49:36;;;;;;;15.88;11.15;;;;;;;;;;5108759;28;20066;-70
2021/10/21 09:52:03;;;;;;;14.20;9.20;;;;;;;;;;5096210;28;20088;-71
2021/10/21 09:54:32;;;;;;;15.55;10.02;;;;;;;;;;5107076;28;20031;-70
2021/10/21 09:57:00;;;;;;;17.48;12.40;;;;;;;;;;5107771;28;20496;-70
2021/10/21 09:59:27;;;;;;;14.75;10.75;;;;;;;;;;5105621;28;20024;-71
2021/10/21 10:02:05;;;;;;;17.13;10.48;;;;;;;;;;5108032;28;20027;-72
2021/10/21 10:04:31;;;;;;;16.20;11.20;;;;;;;;;;5103331;28;20047;-71
2021/10/21 10:07:30;;;;;;;25.42;16.15;;;;;;;;;;5088872;27;20382;-68
2021/10/21 10:09:59;;;;;;;25.83;17.55;;;;;;;;;;5088293;28;20503;-69
2021/10/21 10:14:27;;;;;;;15.25;10.57;;;;;;;;;;5109804;27;20496;-68
2021/10/21 10:18:17;;;;;;;17.33;10.10;;;;;;;;;;5107226;27;20126;-68
2021/10/21 10:22:28;;;;;;;18.48;11.18;;;;;;;;;;5109366;27;20778;-70
2021/10/21 10:24:55;;;;;;;16.80;10.43;;;;;;;;;;5110204;28;20341;-72
2021/10/21 10:31:49;;;;;;;16.42;11.00;;;;;;;;;;5110346;27;20446;-70
2021/10/21 10:34:34;;;;;;;19.63;11.75;;;;;;;;;;5097319;28;20177;-70
2021/10/21 10:39:07;;;;;;;16.33;10.50;;;;;;;;;;5101273;27;20462;-67
2021/10/21 10:41:43;;;;;;;13.68;9.70;;;;;;;;;;5109786;28;20032;-68
2021/10/21 10:44:10;;;;;;;14.15;8.73;;;;;;;;;;5110107;28;20020;-69
2021/10/21 10:46:52;;;;;;;12.23;8.70;;;;;;;;;;5084773;28;20453;-69
2021/10/21 10:49:37;;;;;;;12.15;8.48;;;;;;;;;;5088091;28;20127;-68
2021/10/21 10:52:04;;;;;;;10.65;7.57;;;;;;;;;;5086274;28;20035;-69
2021/10/21 10:54:51;;;;;;;12.30;9.07;;;;;;;;;;5098266;28;20480;-69
2021/10/21 10:57:26;;;;;;;14.65;9.73;;;;;;;;;;5060735;28;20047;-69
2021/10/21 10:59:53;;;;;;;15.48;10.50;;;;;;;;;;5078144;28;20178;-70
2021/10/21 11:02:25;;;;;;;20.70;13.60;;;;;;;;;;5099372;28;20024;-70
2021/10/21 11:04:52;;;;;;;18.95;12.45;;;;;;;;;;5107751;28;20020;-69
2021/10/21 11:07:28;;;;;;;17.00;11.48;;;;;;;;;;5081634;28;20047;-70
2021/10/21 11:10:22;;;;;;;14.30;9.48;;;;;;;;;;5090946;27;20402;-69
2021/10/21 11:12:51;;;;;;;14.07;9.13;;;;;;;;;;5103659;28;20036;-70
2021/10/21 11:17:57;;;;;;;15.90;9.60;;;;;;;;;;5108072;27;20899;-69
2021/10/21 11:22:53;;;;;;;22.02;13.57;;;;;;;;;;5108056;27;20396;-69
2021/10/21 11:25:24;;;;;;;12.90;8.77;;;;;;;;;;5108771;28;20024;-68
2021/10/21 11:27:53;;;;;;;17.70;9.82;;;;;;;;;;5109008;28;20020;-68
2021/10/21 11:30:19;;;;;;;12.60;8.57;;;;;;;;;;5110054;28;20077;-68
2021/10/21 11:32:46;;;;;;;13.35;9.25;;;;;;;;;;5107150;28;20054;-68
2021/10/21 11:36:20;;;;;;;15.15;9.85;;;;;;;;;;5107066;27;21037;-69
2021/10/21 11:39:03;;;;;;;11.75;8.85;;;;;;;;;;5106016;28;20431;-68
2021/10/21 11:43:48;;;;;;;13.98;9.88;;;;;;;;;;5109897;27;20392;-66
2021/10/21 11:46:21;;;;;;;12.93;9.38;;;;;;;;;;5110428;28;20658;-67
2021/10/21 11:48:47;;;;;;;16.13;8.77;;;;;;;;;;5110449;28;20494;-68
2021/10/21 11:51:13;;;;;;;20.25;12.40;;;;;;;;;;5109522;28;20028;-69
2021/10/21 11:53:40;;;;;;;12.80;8.88;;;;;;;;;;5109620;28;20031;-69
2021/10/21 11:56:07;;;;;;;13.15;8.20;;;;;;;;;;5109403;28;20461;-68
2021/10/21 11:58:36;;;;;;;12.65;7.82;;;;;;;;;;5110089;28;20020;-68
2021/10/21 12:01:06;;;;;;;11.80;8.18;;;;;;;;;;5110688;28;20028;-71
2021/10/21 12:03:32;;;;;;;12.93;7.50;;;;;;;;;;5109826;28;20039;-70
2021/10/21 12:05:59;;;;;;;12.77;8.63;;;;;;;;;;5109643;28;20027;-71
2021/10/21 12:08:26;;;;;;;11.77;7.13;;;;;;;;;;5109991;28;20024;-70
2021/10/21 12:10:59;;;;;;;33.10;17.20;;;;;;;;;;5108355;28;20023;-70
2021/10/21 12:13:31;;;;;;;20.98;12.73;;;;;;;;;;5107577;28;20475;-69
2021/10/21 12:15:58;;;;;;;20.17;12.40;;;;;;;;;;5106284;28;20476;-72
2021/10/21 12:18:26;;;;;;;14.57;8.60;;;;;;;;;;5106370;28;20052;-67
2021/10/21 12:20:53;;;;;;;16.58;9.82;;;;;;;;;;5111758;28;20039;-68
2021/10/21 12:23:28;;;;;;;11.05;7.45;;;;;;;;;;5109900;28;20135;-68
2021/10/21 12:25:59;;;;;;;11.93;7.55;;;;;;;;;;5109357;28;20016;-69
2021/10/21 12:28:45;;;;;;;11.82;7.75;;;;;;;;;;5109338;28;20118;-69
2021/10/21 12:31:19;;;;;;;24.20;13.43;;;;;;;;;;5109280;28;20019;-70
2021/10/21 12:33:56;;;;;;;29.60;14.27;;;;;;;;;;5108593;28;20495;-69
2021/10/21 12:36:24;;;;;;;26.10;13.43;;;;;;;;;;5106941;28;20586;-68
2021/10/21 12:38:53;;;;;;;35.55;14.15;;;;;;;;;;5109316;28;20052;-66
2021/10/21 12:41:20;;;;;;;41.85;18.95;;;;;;;;;;5108412;28;20024;-66
2021/10/21 12:44:04;;;;;;;23.70;11.27;;;;;;;;;;5108357;28;20040;-68
2021/10/21 12:46:30;;;;;;;15.05;8.68;;;;;;;;;;5107277;28;20527;-68
2021/10/21 12:49:13;;;;;;;10.05;6.70;;;;;;;;;;5107351;28;20047;-71
2021/10/21 12:51:40;;;;;;;;;;;;;;;;;;5106510;28;20487;-70
2021/10/21 12:54:07;;;;;;;12.07;8.20;;;;;;;;;;5099943;28;19913;-71
2021/10/21 12:56:35;;;;;;;13.32;8.93;;;;;;;;;;5113570;28;20019;-70
2021/10/21 12:59:05;;;;;;;12.00;7.80;;;;;;;;;;5114955;28;20035;-70
2021/10/21 13:01:50;;;;;;;10.52;7.57;;;;;;;;;;5114572;28;20020;-69
2021/10/21 13:04:35;;;;;;;12.10;8.15;;;;;;;;;;5097811;28;20032;-70
2021/10/21 13:07:01;;;;;;;11.18;7.60;;;;;;;;;;5076101;28;20024;-70
2021/10/21 13:09:31;;;;;;;13.55;7.97;;;;;;;;;;5095382;28;20411;-69
2021/10/21 13:11:57;;;;;;;15.00;8.60;;;;;;;;;;5094663;28;20476;-70
2021/10/21 13:14:23;;;;;;;14.23;8.27;;;;;;;;;;5095829;28;20066;-71
2021/10/21 13:16:49;;;;;;;12.68;7.57;;;;;;;;;;5095470;28;20016;-69
2021/10/21 13:19:15;;;;;;;16.58;9.80;;;;;;;;;;5095845;28;20024;-70
2021/10/21 13:21:41;;;;;;;22.60;12.93;;;;;;;;;;5095286;28;20387;-69
2021/10/21 13:24:08;;;;;;;15.45;9.00;;;;;;;;;;5096046;28;20051;-69
2021/10/21 13:26:34;;;;;;;13.90;8.82;;;;;;;;;;5095741;28;20031;-70
2021/10/21 13:29:00;;;;;;;20.90;11.18;;;;;;;;;;5095374;28;20024;-71
2021/10/21 13:31:26;;;;;;;25.92;15.23;;;;;;;;;;5095608;28;20028;-70
2021/10/21 13:33:52;;;;;;;23.30;14.23;;;;;;;;;;5095564;28;20032;-70
2021/10/21 13:36:18;;;;;;;13.95;8.07;;;;;;;;;;5095167;28;20370;-70
2021/10/21 13:38:45;;;;;;;12.98;8.15;;;;;;;;;;5095427;28;20073;-68
2021/10/21 13:41:11;;;;;;;58.13;33.47;;;;;;;;;;5095481;28;20028;-69
2021/10/21 13:43:37;;;;;;;18.65;12.00;;;;;;;;;;5093460;28;20048;-70
2021/10/21 13:46:03;;;;;;;14.82;9.13;;;;;;;;;;5095302;28;20492;-70
2021/10/21 13:48:31;;;;;;;31.98;17.17;;;;;;;;;;5095154;28;20027;-69
2021/10/21 13:50:57;;;;;;;17.08;10.75;;;;;;;;;;5095102;28;20024;-69
2021/10/21 13:53:24;;;;;;;17.15;11.20;;;;;;;;;;5094415;28;20044;-70
2021/10/21 13:55:50;;;;;;;20.95;12.75;;;;;;;;;;5094415;28;20024;-69
2021/10/21 13:58:16;;;;;;;23.77;14.68;;;;;;;;;;5093195;28;20020;-68
2021/10/21 14:00:43;;;;;;;19.08;11.25;;;;;;;;;;5092596;28;20031;-68
2021/10/21 14:03:09;;;;;;;27.45;14.82;;;;;;;;;;5094563;28;20495;-68
2021/10/21 14:05:36;;;;;;;14.30;9.55;;;;;;;;;;5092919;28;20077;-68
2021/10/21 14:08:03;;;;;;;24.40;12.27;;;;;;;;;;5094577;28;20030;-68
2021/10/21 14:10:29;;;;;;;20.80;11.65;;;;;;;;;;5094514;28;20020;-68
2021/10/21 14:12:56;;;;;;;22.77;13.07;;;;;;;;;;5092729;28;20028;-68
2021/10/21 14:15:22;;;;;;;21.65;12.65;;;;;;;;;;5093962;28;20032;-70
2021/10/21 14:17:48;;;;;;;20.23;11.20;;;;;;;;;;5092769;28;20414;-69
2021/10/21 14:20:15;;;;;;;15.88;10.10;;;;;;;;;;5090002;28;20480;-69
2021/10/21 14:22:41;;;;;;;22.15;15.02;;;;;;;;;;5093661;28;20047;-69
2021/10/21 14:25:07;;;;;;;17.02;10.65;;;;;;;;;;5092172;28;20046;-70
2021/10/21 14:27:35;;;;;;;15.32;9.90;;;;;;;;;;5093039;28;20107;-70
2021/10/21 14:30:01;;;;;;;21.75;13.90;;;;;;;;;;5093887;28;20103;-71
2021/10/21 14:32:27;;;;;;;12.73;8.23;;;;;;;;;;5087013;28;20442;-71
2021/10/21 14:34:53;;;;;;;14.82;8.48;;;;;;;;;;5091063;28;20020;-70
2021/10/21 14:37:20;;;;;;;15.85;10.15;;;;;;;;;;5094021;28;20379;-70
2021/10/21 14:39:46;;;;;;;18.23;10.60;;;;;;;;;;5094033;28;20020;-70
2021/10/21 14:42:13;;;;;;;20.30;13.10;;;;;;;;;;5094075;28;20054;-70
2021/10/21 14:44:39;;;;;;;14.07;8.45;;;;;;;;;;5094180;28;20094;-71
2021/10/21 14:47:06;;;;;;;12.82;7.90;;;;;;;;;;5081451;28;20073;-70
2021/10/21 14:49:32;;;;;;;12.65;9.10;;;;;;;;;;5073974;28;20031;-70
2021/10/21 14:51:59;;;;;;;17.17;10.77;;;;;;;;;;5074135;28;20389;-70
2021/10/21 14:54:25;;;;;;;34.05;23.33;;;;;;;;;;5072889;28;20059;-70
2021/10/21 14:56:54;;;;;;;35.10;21.90;;;;;;;;;;5073690;28;20020;-70
2021/10/21 14:59:21;;;;;;;18.65;12.88;;;;;;;;;;5074018;28;20028;-69
2021/10/21 15:01:47;;;;;;;12.90;9.25;;;;;;;;;;5093379;28;20020;-69
2021/10/21 15:04:15;;;;;;;17.98;13.50;;;;;;;;;;5092568;28;20036;-69
2021/10/21 15:07:13;;;;;;;18.48;13.98;;;;;;;;;;5093869;28;20022;-69